createdAt,value
2023-10-31T00:01:30.287Z,1.70
2023-10-31T00:03:57.808Z,0.60
2023-10-31T00:06:25.356Z,0.82
2023-10-31T00:08:53.424Z,1.08
2023-10-31T00:11:21.046Z,1.55
2023-10-31T00:13:48.688Z,1.65
2023-10-31T00:16:16.369Z,1.70
2023-10-31T00:18:45.338Z,1.27
2023-10-31T00:21:12.927Z,1.83
2023-10-31T00:23:45.337Z,0.88
2023-10-31T00:26:13.276Z,2.25
2023-10-31T00:28:40.983Z,1.02
2023-10-31T00:31:09.217Z,0.70
2023-10-31T00:33:37.109Z,1.10
2023-10-31T00:36:07.023Z,0.88
2023-10-31T00:38:34.604Z,1.20
2023-10-31T00:41:02.176Z,0.40
2023-10-31T00:43:29.757Z,3.00
2023-10-31T00:45:57.369Z,0.82
2023-10-31T00:48:25.104Z,1.80
2023-10-31T00:50:52.839Z,0.38
2023-10-31T00:53:21.808Z,1.30
2023-10-31T00:55:49.435Z,0.93
2023-10-31T00:58:17.078Z,2.47
2023-10-31T01:00:44.680Z,0.55
2023-10-31T01:03:12.396Z,0.30
2023-10-31T01:05:40.049Z,2.33
2023-10-31T01:08:07.748Z,1.65
2023-10-31T01:10:36.757Z,1.08
2023-10-31T01:13:04.371Z,3.50
2023-10-31T01:15:31.943Z,2.28
2023-10-31T01:17:59.481Z,0.75
2023-10-31T01:20:27.982Z,1.88
2023-10-31T01:22:55.501Z,5.95
2023-10-31T01:25:23.092Z,0.77
2023-10-31T01:27:51.923Z,2.75
2023-10-31T01:30:19.630Z,5.18
2023-10-31T01:32:47.281Z,1.55
2023-10-31T01:35:14.994Z,5.22
2023-10-31T01:37:42.687Z,2.95
2023-10-31T01:40:13.914Z,1.58
2023-10-31T01:42:41.443Z,1.40
2023-10-31T01:45:11.247Z,1.70
2023-10-31T01:47:38.755Z,1.85
2023-10-31T01:50:08.728Z,1.73
2023-10-31T01:52:37.032Z,3.35
2023-10-31T01:55:06.408Z,1.17
2023-10-31T01:57:34.025Z,4.32
2023-10-31T02:00:01.673Z,2.13
2023-10-31T02:02:34.809Z,1.35
2023-10-31T02:05:02.569Z,2.85
2023-10-31T02:07:30.086Z,2.20
2023-10-31T02:09:57.596Z,1.65
2023-10-31T02:12:33.518Z,4.05
2023-10-31T02:15:01.178Z,1.30
2023-10-31T02:17:30.183Z,2.75
2023-10-31T02:19:57.795Z,1.38
2023-10-31T02:22:26.681Z,1.60
2023-10-31T02:24:54.261Z,3.85
2023-10-31T02:27:21.803Z,0.90
2023-10-31T02:29:49.428Z,0.75
2023-10-31T02:32:17.021Z,1.38
2023-10-31T02:34:46.817Z,1.33
2023-10-31T02:37:14.451Z,4.75
2023-10-31T02:39:44.250Z,1.08
2023-10-31T02:42:11.777Z,1.42
2023-10-31T02:44:39.260Z,0.88
2023-10-31T02:47:07.003Z,0.90
2023-10-31T02:49:34.547Z,1.95
2023-10-31T02:52:02.048Z,1.08
2023-10-31T02:54:29.561Z,0.55
2023-10-31T02:56:58.421Z,1.65
2023-10-31T02:59:25.953Z,0.63
2023-10-31T03:01:54.500Z,1.50
2023-10-31T03:04:22.013Z,1.13
2023-10-31T03:06:49.502Z,0.70
2023-10-31T03:09:17.286Z,2.58
2023-10-31T03:11:44.836Z,0.93
2023-10-31T03:14:13.822Z,0.95
2023-10-31T03:16:41.444Z,0.60
2023-10-31T03:19:09.260Z,0.88
2023-10-31T03:21:36.794Z,2.55
2023-10-31T03:24:04.687Z,0.52
2023-10-31T03:26:32.159Z,1.25
2023-10-31T03:28:59.734Z,0.60
2023-10-31T03:31:28.893Z,2.35
2023-10-31T03:33:56.682Z,3.53
2023-10-31T03:36:24.230Z,1.00
2023-10-31T03:38:51.793Z,0.63
2023-10-31T03:41:19.470Z,1.15
2023-10-31T03:43:47.063Z,0.80
2023-10-31T03:46:14.619Z,0.98
2023-10-31T03:48:43.754Z,1.23
2023-10-31T03:51:11.290Z,0.95
2023-10-31T03:53:38.811Z,0.93
2023-10-31T03:56:06.931Z,0.90
2023-10-31T03:58:34.947Z,0.85
2023-10-31T04:01:03.622Z,0.80
2023-10-31T04:03:31.290Z,1.92
2023-10-31T04:06:00.277Z,1.75
2023-10-31T04:08:27.815Z,1.58
2023-10-31T04:10:55.417Z,1.40
2023-10-31T04:13:22.984Z,1.95
2023-10-31T04:15:50.600Z,1.17
2023-10-31T04:18:18.254Z,2.38
2023-10-31T04:20:45.839Z,1.20
2023-10-31T04:23:14.833Z,1.20
2023-10-31T04:25:42.480Z,3.28
2023-10-31T04:28:10.106Z,1.50
2023-10-31T04:30:37.621Z,2.40
2023-10-31T04:33:05.240Z,2.90
2023-10-31T04:35:32.837Z,1.42
2023-10-31T04:38:00.492Z,1.23
2023-10-31T04:40:29.422Z,1.85
2023-10-31T04:42:57.253Z,7.28
2023-10-31T04:45:24.923Z,2.63
2023-10-31T04:47:52.705Z,2.60
2023-10-31T04:50:20.391Z,1.90
2023-10-31T04:52:48.126Z,3.20
2023-10-31T04:55:18.085Z,2.30
2023-10-31T04:57:47.676Z,2.40
2023-10-31T05:00:16.248Z,3.03
2023-10-31T05:02:43.913Z,2.47
2023-10-31T05:05:11.719Z,2.97
2023-10-31T05:07:39.403Z,3.55
2023-10-31T05:10:08.348Z,2.47
2023-10-31T05:12:36.188Z,2.42
2023-10-31T05:15:05.776Z,2.78
2023-10-31T05:17:33.446Z,2.33
2023-10-31T05:20:01.205Z,1.85
2023-10-31T05:22:28.965Z,2.58
2023-10-31T05:24:56.684Z,2.15
2023-10-31T05:27:24.625Z,3.45
2023-10-31T05:29:52.473Z,1.85
2023-10-31T05:32:21.493Z,1.13
2023-10-31T05:34:49.161Z,0.77
2023-10-31T05:37:16.810Z,1.70
2023-10-31T05:39:44.505Z,1.45
2023-10-31T05:42:12.076Z,1.13
2023-10-31T05:44:40.582Z,1.45
2023-10-31T05:47:08.243Z,1.90
2023-10-31T05:49:37.234Z,1.55
2023-10-31T05:52:05.338Z,8.25
2023-10-31T05:54:33.012Z,2.00
2023-10-31T05:57:00.838Z,1.15
2023-10-31T05:59:28.440Z,1.83
2023-10-31T06:01:56.001Z,2.92
2023-10-31T06:04:23.707Z,1.13
2023-10-31T06:06:52.601Z,1.98
2023-10-31T06:09:20.078Z,2.58
2023-10-31T06:11:48.569Z,1.83
2023-10-31T06:14:16.090Z,1.55
2023-10-31T06:16:44.261Z,2.50
2023-10-31T06:19:12.237Z,2.22
2023-10-31T06:21:39.733Z,1.60
2023-10-31T06:24:09.843Z,3.47
2023-10-31T06:26:37.548Z,1.48
2023-10-31T06:29:27.316Z,1.83
2023-10-31T06:31:53.057Z,2.10
2023-10-31T06:34:20.549Z,2.75
2023-10-31T06:36:48.055Z,2.22
2023-10-31T06:39:16.854Z,1.58
2023-10-31T06:41:44.332Z,2.80
2023-10-31T06:44:11.837Z,1.27
2023-10-31T06:46:39.644Z,1.63
2023-10-31T06:49:07.184Z,1.55
2023-10-31T06:51:34.818Z,2.80
2023-10-31T06:54:02.449Z,1.52
2023-10-31T06:56:31.325Z,1.67
2023-10-31T06:58:58.936Z,5.38
2023-10-31T07:01:27.913Z,2.65
2023-10-31T07:03:55.670Z,1.63
2023-10-31T07:06:23.561Z,4.05
2023-10-31T07:08:51.153Z,3.47
2023-10-31T07:11:18.711Z,2.97
2023-10-31T07:13:47.690Z,2.92
2023-10-31T07:16:15.286Z,2.90
2023-10-31T07:18:42.868Z,3.55
2023-10-31T07:21:10.344Z,3.83
2023-10-31T07:23:38.729Z,1.80
2023-10-31T07:26:07.036Z,1.98
2023-10-31T07:28:34.616Z,2.05
2023-10-31T07:31:03.836Z,4.90
2023-10-31T07:33:31.378Z,2.78
2023-10-31T07:35:59.030Z,1.75
2023-10-31T07:38:26.593Z,2.70
2023-10-31T07:40:54.157Z,3.85
2023-10-31T07:43:21.724Z,2.35
2023-10-31T07:45:49.554Z,1.75
2023-10-31T07:48:18.450Z,4.18
2023-10-31T07:50:46.022Z,2.70
2023-10-31T07:53:13.661Z,2.95
2023-10-31T07:55:41.219Z,3.38
2023-10-31T07:58:10.447Z,1.95
2023-10-31T08:00:40.144Z,2.42
2023-10-31T08:03:07.893Z,1.85
2023-10-31T08:05:36.943Z,2.58
2023-10-31T08:08:04.882Z,3.47
2023-10-31T08:10:32.715Z,3.88
2023-10-31T08:13:00.356Z,4.07
2023-10-31T08:15:27.946Z,3.22
2023-10-31T08:17:55.550Z,2.72
2023-10-31T08:20:23.146Z,2.38
2023-10-31T08:22:52.232Z,2.60
2023-10-31T08:25:19.873Z,2.72
2023-10-31T08:27:47.690Z,3.08
2023-10-31T08:30:15.585Z,12.43
2023-10-31T08:32:43.448Z,1.80
2023-10-31T08:35:11.031Z,3.08
2023-10-31T08:37:38.687Z,2.95
2023-10-31T08:40:09.402Z,2.67
2023-10-31T08:42:37.016Z,2.97
2023-10-31T08:45:05.178Z,3.78
2023-10-31T08:47:32.871Z,3.55
2023-10-31T08:50:00.502Z,3.13
2023-10-31T08:52:28.061Z,3.30
2023-10-31T08:54:55.678Z,2.42
2023-10-31T08:57:24.550Z,1.80
2023-10-31T08:59:52.086Z,1.42
2023-10-31T09:02:19.723Z,2.55
2023-10-31T09:04:47.312Z,2.80
2023-10-31T09:07:16.359Z,3.08
2023-10-31T09:09:43.994Z,2.70
2023-10-31T09:12:11.508Z,2.13
2023-10-31T09:14:42.850Z,3.40
2023-10-31T09:17:10.415Z,3.92
2023-10-31T09:19:37.955Z,3.33
2023-10-31T09:22:05.961Z,3.03
2023-10-31T09:24:33.473Z,3.08
2023-10-31T09:27:01.026Z,1.85
2023-10-31T09:29:30.310Z,2.90
2023-10-31T09:32:00.379Z,2.70
2023-10-31T09:34:27.983Z,3.40
2023-10-31T09:36:55.905Z,1.95
2023-10-31T09:39:24.107Z,2.45
2023-10-31T09:41:54.283Z,4.85
2023-10-31T09:44:22.682Z,4.43
2023-10-31T09:46:50.790Z,2.38
2023-10-31T09:49:19.889Z,1.27
2023-10-31T09:51:48.823Z,5.15
2023-10-31T09:54:18.489Z,1.88
2023-10-31T09:56:46.491Z,4.03
2023-10-31T09:59:16.383Z,2.60
2023-10-31T10:01:44.049Z,2.45
2023-10-31T10:04:12.423Z,2.50
2023-10-31T10:06:52.402Z,3.33
2023-10-31T10:09:19.980Z,1.80
2023-10-31T10:11:47.757Z,3.50
2023-10-31T10:14:15.316Z,8.23
2023-10-31T10:16:42.923Z,3.13
2023-10-31T10:19:18.739Z,4.72
2023-10-31T10:21:52.366Z,1.80
2023-10-31T10:24:21.138Z,4.10
2023-10-31T10:26:49.530Z,2.28
2023-10-31T10:29:17.622Z,4.88
2023-10-31T10:31:45.972Z,6.15
2023-10-31T10:34:16.109Z,2.38
2023-10-31T10:36:50.832Z,3.20
2023-10-31T10:39:22.667Z,5.22
2023-10-31T10:41:56.541Z,2.50
2023-10-31T10:44:33.338Z,3.55
2023-10-31T10:47:04.861Z,5.35
2023-10-31T10:49:36.923Z,4.70
2023-10-31T10:52:16.352Z,1.35
2023-10-31T10:54:48.188Z,2.70
2023-10-31T10:57:17.656Z,5.03
2023-10-31T10:59:51.927Z,4.55
2023-10-31T11:02:20.430Z,3.78
2023-10-31T11:04:50.114Z,2.95
2023-10-31T11:07:19.848Z,4.75
2023-10-31T11:09:49.903Z,4.22
2023-10-31T11:12:18.069Z,2.38
2023-10-31T11:14:46.138Z,5.45
2023-10-31T11:17:21.824Z,3.15
2023-10-31T11:19:49.637Z,2.22
2023-10-31T11:22:21.535Z,5.82
2023-10-31T11:24:52.559Z,4.07
2023-10-31T11:27:20.626Z,4.40
2023-10-31T11:29:49.578Z,6.22
2023-10-31T11:32:17.269Z,3.93
2023-10-31T11:34:45.364Z,6.55
2023-10-31T11:37:26.045Z,3.08
2023-10-31T11:40:21.266Z,2.13
2023-10-31T11:42:50.430Z,5.45
2023-10-31T11:45:32.358Z,2.73
2023-10-31T11:48:00.126Z,4.25
2023-10-31T11:50:27.786Z,1.42
2023-10-31T11:53:07.087Z,4.10
2023-10-31T11:55:41.574Z,3.22
2023-10-31T11:58:17.124Z,1.27
2023-10-31T12:00:45.720Z,2.88
2023-10-31T12:03:13.572Z,3.03
2023-10-31T12:05:41.187Z,1.98
2023-10-31T12:08:08.791Z,1.40
2023-10-31T12:10:36.326Z,3.70
2023-10-31T12:13:05.245Z,4.43
2023-10-31T12:15:32.837Z,3.13
2023-10-31T12:18:01.266Z,2.63
2023-10-31T12:20:29.527Z,3.65
2023-10-31T12:23:04.649Z,2.88
2023-10-31T12:25:36.468Z,2.65
2023-10-31T12:28:05.949Z,3.40
2023-10-31T12:30:33.484Z,2.78
2023-10-31T12:33:02.498Z,3.00
2023-10-31T12:35:30.296Z,2.00
2023-10-31T12:37:58.462Z,3.17
2023-10-31T12:42:55.143Z,3.35
2023-10-31T12:45:24.087Z,1.00
2023-10-31T12:48:05.264Z,1.83
2023-10-31T12:50:33.482Z,3.38
2023-10-31T12:53:01.770Z,1.85
2023-10-31T12:55:30.043Z,4.55
2023-10-31T12:57:58.889Z,2.30
2023-10-31T13:00:35.388Z,2.50
2023-10-31T13:03:04.634Z,2.10
2023-10-31T13:05:32.803Z,1.85
2023-10-31T13:08:01.434Z,2.75
2023-10-31T13:10:29.867Z,3.75
2023-10-31T13:12:57.922Z,5.87
2023-10-31T13:15:26.434Z,1.45
2023-10-31T13:17:55.561Z,1.52
2023-10-31T13:20:23.809Z,1.25
2023-10-31T13:22:51.633Z,2.78
2023-10-31T13:25:19.261Z,4.47
2023-10-31T13:27:51.914Z,4.53
2023-10-31T13:30:19.994Z,2.22
2023-10-31T13:32:47.812Z,3.28
2023-10-31T13:35:16.882Z,2.05
2023-10-31T13:37:44.513Z,1.13
2023-10-31T13:40:13.816Z,1.17
2023-10-31T13:42:41.483Z,1.33
2023-10-31T13:45:09.768Z,1.50
2023-10-31T13:47:39.274Z,1.40
2023-10-31T13:50:09.621Z,1.75
2023-10-31T13:52:39.115Z,1.73
2023-10-31T13:55:08.057Z,0.82
2023-10-31T13:57:35.645Z,3.03
2023-10-31T14:00:04.678Z,1.30
2023-10-31T14:02:33.406Z,1.27
2023-10-31T14:05:01.959Z,2.15
2023-10-31T14:07:29.598Z,3.08
2023-10-31T14:09:58.444Z,2.25
2023-10-31T14:12:25.993Z,0.98
2023-10-31T14:14:53.727Z,2.03
2023-10-31T14:17:23.641Z,0.80
2023-10-31T14:19:51.128Z,1.48
2023-10-31T14:22:18.619Z,5.75
2023-10-31T14:24:47.773Z,1.55
2023-10-31T14:27:17.091Z,0.90
2023-10-31T14:29:44.694Z,3.33
2023-10-31T14:32:12.750Z,1.35
2023-10-31T14:34:40.562Z,2.40
2023-10-31T14:37:08.075Z,4.05
2023-10-31T14:39:35.871Z,1.70
2023-10-31T14:42:03.446Z,3.00
2023-10-31T14:44:32.295Z,3.53
2023-10-31T14:47:00.792Z,2.53
2023-10-31T14:49:28.377Z,1.67
2023-10-31T14:51:55.924Z,1.83
2023-10-31T14:54:23.446Z,1.88
2023-10-31T14:56:50.970Z,1.48
2023-10-31T14:59:18.502Z,1.02
2023-10-31T15:01:47.434Z,1.58
2023-10-31T15:04:14.931Z,1.50
2023-10-31T15:06:42.472Z,3.50
2023-10-31T15:09:09.992Z,2.65
2023-10-31T15:11:37.712Z,1.30
2023-10-31T15:14:05.477Z,1.55
2023-10-31T15:16:33.102Z,0.97
2023-10-31T15:19:02.057Z,4.20
2023-10-31T15:21:29.586Z,1.73
2023-10-31T15:23:58.685Z,2.05
2023-10-31T15:26:27.725Z,2.10
2023-10-31T15:28:55.263Z,5.37
2023-10-31T15:31:22.850Z,1.02
2023-10-31T15:33:50.486Z,1.55
2023-10-31T15:36:19.823Z,3.95
2023-10-31T15:38:47.409Z,1.20
2023-10-31T15:41:17.989Z,2.23
2023-10-31T15:43:46.330Z,4.07
2023-10-31T15:46:14.186Z,0.70
2023-10-31T15:48:42.843Z,1.30
2023-10-31T15:51:10.444Z,2.20
2023-10-31T15:53:39.387Z,2.70
2023-10-31T15:56:10.603Z,3.42
2023-10-31T15:58:38.360Z,2.72
2023-10-31T16:01:07.038Z,1.88
2023-10-31T16:03:34.736Z,2.70
2023-10-31T16:06:02.450Z,7.57
2023-10-31T16:08:30.024Z,4.63
2023-10-31T16:10:58.898Z,1.63
2023-10-31T16:13:26.412Z,1.13
2023-10-31T16:15:53.948Z,2.00
2023-10-31T16:18:21.498Z,3.13
2023-10-31T16:20:50.420Z,1.17
2023-10-31T16:23:20.149Z,2.40
2023-10-31T16:25:47.712Z,0.65
2023-10-31T16:28:16.534Z,1.83
2023-10-31T16:30:44.089Z,0.13
2023-10-31T16:33:11.874Z,2.08
2023-10-31T16:35:39.520Z,0.50
2023-10-31T16:38:07.172Z,1.60
2023-10-31T16:40:34.710Z,0.57
2023-10-31T16:43:02.317Z,2.03
2023-10-31T16:45:31.184Z,0.45
2023-10-31T16:47:58.742Z,1.20
2023-10-31T16:50:30.383Z,0.47
2023-10-31T16:52:57.919Z,2.05
2023-10-31T16:55:27.245Z,0.32
2023-10-31T16:57:54.951Z,1.35
2023-10-31T17:00:22.854Z,1.48
2023-10-31T17:02:51.833Z,0.50
2023-10-31T17:05:19.867Z,2.58
2023-10-31T17:07:47.379Z,0.75
2023-10-31T17:10:14.959Z,1.77
2023-10-31T17:12:43.239Z,1.35
2023-10-31T17:15:11.133Z,2.92
2023-10-31T17:17:38.729Z,2.60
2023-10-31T17:20:09.336Z,3.08
2023-10-31T17:22:39.219Z,1.48
2023-10-31T17:25:07.166Z,2.33
2023-10-31T17:27:34.790Z,0.82
2023-10-31T17:30:02.880Z,1.92
2023-10-31T17:32:31.279Z,1.70
2023-10-31T17:34:58.832Z,1.60
2023-10-31T17:37:27.684Z,3.72
2023-10-31T17:39:55.263Z,1.73
2023-10-31T17:42:25.046Z,3.92
2023-10-31T17:44:52.651Z,2.10
2023-10-31T17:47:20.180Z,3.50
2023-10-31T17:49:47.940Z,3.28
2023-10-31T17:52:15.459Z,4.95
2023-10-31T17:54:45.133Z,2.10
2023-10-31T17:57:12.854Z,5.00
2023-10-31T17:59:40.472Z,4.47
2023-10-31T18:02:08.070Z,1.90
2023-10-31T18:04:35.626Z,2.53
2023-10-31T18:07:03.159Z,5.22
2023-10-31T18:09:30.695Z,3.22
2023-10-31T18:12:00.327Z,3.40
2023-10-31T18:14:27.835Z,5.82
2023-10-31T18:16:55.419Z,3.10
2023-10-31T18:19:22.952Z,4.28
2023-10-31T18:21:50.444Z,3.35
2023-10-31T18:24:17.942Z,3.70
2023-10-31T18:26:45.480Z,3.78
2023-10-31T18:29:15.725Z,2.35
2023-10-31T18:31:43.253Z,7.63
2023-10-31T18:34:11.154Z,3.42
2023-10-31T18:36:39.951Z,7.03
2023-10-31T18:39:07.918Z,3.90
2023-10-31T18:41:37.821Z,3.30
2023-10-31T18:44:21.833Z,6.15
2023-10-31T18:46:54.520Z,5.60
2023-10-31T18:49:22.925Z,4.90
2023-10-31T18:51:50.458Z,4.18
2023-10-31T18:54:18.510Z,5.22
2023-10-31T18:56:46.098Z,5.03
2023-10-31T18:59:13.790Z,2.58
2023-10-31T19:01:42.370Z,3.00
2023-10-31T19:04:12.403Z,5.57
2023-10-31T19:06:42.748Z,4.43
2023-10-31T19:09:11.024Z,3.15
2023-10-31T19:11:38.555Z,4.35
2023-10-31T19:14:06.309Z,7.75
2023-10-31T19:16:34.091Z,6.45
2023-10-31T19:19:01.618Z,6.50
2023-10-31T19:21:30.554Z,8.00
2023-10-31T19:23:58.170Z,11.98
2023-10-31T19:26:25.900Z,9.38
2023-10-31T19:28:53.549Z,7.68
2023-10-31T19:31:21.115Z,7.60
2023-10-31T19:33:48.920Z,5.38
2023-10-31T19:36:17.116Z,5.78
2023-10-31T19:38:46.154Z,7.05
2023-10-31T19:41:13.896Z,5.50
2023-10-31T19:43:41.567Z,7.38
2023-10-31T19:46:09.183Z,5.90
2023-10-31T19:48:37.005Z,7.85
2023-10-31T19:51:05.090Z,5.13
2023-10-31T19:53:32.690Z,8.43
2023-10-31T19:56:01.784Z,5.88
2023-10-31T19:58:29.950Z,6.10
2023-10-31T20:00:57.561Z,2.75
2023-10-31T20:03:25.367Z,5.00
2023-10-31T20:05:53.142Z,4.38
2023-10-31T20:08:20.729Z,4.47
2023-10-31T20:10:48.433Z,4.57
2023-10-31T20:13:18.318Z,5.47
2023-10-31T20:15:45.937Z,4.75
2023-10-31T20:18:13.537Z,4.07
2023-10-31T20:20:41.297Z,5.97
2023-10-31T20:23:08.862Z,4.85
2023-10-31T20:25:38.245Z,5.47
2023-10-31T20:28:06.235Z,7.55
2023-10-31T20:30:35.592Z,8.43
2023-10-31T20:33:03.383Z,6.32
2023-10-31T20:35:31.215Z,5.63
2023-10-31T20:37:59.066Z,8.80
2023-10-31T20:40:27.354Z,4.90
2023-10-31T20:42:55.062Z,5.70
2023-10-31T20:45:23.027Z,8.48
2023-10-31T20:47:54.193Z,5.78
2023-10-31T20:50:23.860Z,6.07
2023-10-31T20:52:54.541Z,6.53
2023-10-31T20:55:22.176Z,8.93
2023-10-31T20:57:50.049Z,10.38
2023-10-31T21:00:20.056Z,5.05
2023-10-31T21:02:49.091Z,6.50
2023-10-31T21:05:18.596Z,5.93
2023-10-31T21:07:46.207Z,7.10
2023-10-31T21:10:14.068Z,8.20
2023-10-31T21:12:41.715Z,6.55
2023-10-31T21:15:10.392Z,8.75
2023-10-31T21:17:39.379Z,4.35
2023-10-31T21:20:08.277Z,6.78
2023-10-31T21:22:37.685Z,4.43
2023-10-31T21:25:07.464Z,5.47
2023-10-31T21:27:35.210Z,5.22
2023-10-31T21:30:03.678Z,4.45
2023-10-31T21:32:31.309Z,8.23
2023-10-31T21:34:59.233Z,4.50
2023-10-31T21:37:27.399Z,7.38
2023-10-31T21:39:56.392Z,9.00
2023-10-31T21:42:24.069Z,7.88
2023-10-31T21:44:51.772Z,3.17
2023-10-31T21:47:19.408Z,6.18
2023-10-31T21:49:47.184Z,7.13
2023-10-31T21:52:14.783Z,3.67
2023-10-31T21:54:42.347Z,6.07
2023-10-31T21:57:11.450Z,4.80
2023-10-31T21:59:39.140Z,7.65
2023-10-31T22:02:06.861Z,6.47
2023-10-31T22:04:34.529Z,8.82
2023-10-31T22:07:03.925Z,5.75
2023-10-31T22:09:31.512Z,5.97
2023-10-31T22:11:59.218Z,4.97
2023-10-31T22:14:28.349Z,4.93
2023-10-31T22:16:56.243Z,7.00
2023-10-31T22:19:24.013Z,6.57
2023-10-31T22:21:51.706Z,4.43
2023-10-31T22:24:19.396Z,5.93
2023-10-31T22:26:46.950Z,5.65
2023-10-31T22:29:14.658Z,7.90
2023-10-31T22:31:43.658Z,8.15
2023-10-31T22:34:14.338Z,4.43
2023-10-31T22:36:42.032Z,7.35
2023-10-31T22:39:09.796Z,4.60
2023-10-31T22:41:37.708Z,7.65
2023-10-31T22:44:06.457Z,4.03
2023-10-31T22:46:34.230Z,4.68
2023-10-31T22:49:03.398Z,11.75
2023-10-31T22:51:33.963Z,8.18
2023-10-31T22:54:01.717Z,7.95
2023-10-31T22:56:32.755Z,6.45
2023-10-31T22:59:00.510Z,8.15
2023-10-31T23:01:28.195Z,6.03
2023-10-31T23:03:55.827Z,7.20
2023-10-31T23:06:28.837Z,5.90
2023-10-31T23:09:01.402Z,6.75
2023-10-31T23:11:33.708Z,5.10
2023-10-31T23:14:01.448Z,6.35
2023-10-31T23:16:29.130Z,7.03
2023-10-31T23:18:56.775Z,6.68
2023-10-31T23:21:25.789Z,10.98
2023-10-31T23:23:53.423Z,4.03
2023-10-31T23:26:21.466Z,5.07
2023-10-31T23:28:49.072Z,5.68
2023-10-31T23:31:16.720Z,2.90
2023-10-31T23:33:44.438Z,7.32
2023-10-31T23:36:12.415Z,11.75
2023-10-31T23:38:41.527Z,12.32
2023-10-31T23:41:10.847Z,3.95
2023-10-31T23:43:38.591Z,2.67
2023-10-31T23:46:07.004Z,3.97
2023-10-31T23:48:34.676Z,5.57
2023-10-31T23:51:02.359Z,3.33
2023-10-31T23:53:30.100Z,5.85
2023-10-31T23:55:59.090Z,3.90
2023-10-31T23:58:32.790Z,3.55
